Latest Weather Observations for Glen Innes Airport

IDN60801

Issued at 3:32 pm EST Saturday 22 June 2024 (issued every 10 minutes, with the page automatically refreshed every 10 minutes)

About weather observations | Map of weather stations | Latest weather observations for NSW | Other Formats
Station Details ID: 056243 Name: GLEN INNES AIRPORT AWS Lat: -29.68 Lon: 151.69 Height: 1044.3 m
Data from the previous 72 hours. | See also: Recent months at Glen Innes Airport
Date/Time
EST
Temp
°C
App
Temp
°C
Dew
Point
°C
Rel
Hum
%
Delta-T
°C
Wind Press
QNH
hPa
Press
MSL
hPa
Rain since
9am
mm
Dir  Spd
km/h
Gust
km/h
Spd
kts
Gust
kts
22/03:30pm 11.9 7.1 0.1 44 5.2 WSW 15 20 8 11 1021.0 1021.2 0.0
22/03:00pm 11.9 7.4 -0.3 43 5.3 SW 13 17 7 9 1020.9 1021.1 0.0
22/02:30pm 12.4 8.4 0.2 43 5.4 W 11 17 6 9 1020.8 1020.9 0.0
22/02:00pm 12.5 7.9 -0.7 40 5.7 WSW 13 17 7 9 1021.0 1021.2 0.0
22/01:30pm 12.0 8.0 -1.9 38 5.8 S 9 17 5 9 1021.2 1021.3 0.0
22/01:00pm 11.9 8.0 -1.3 40 5.6 SSW 9 15 5 8 1021.5 1021.6 0.0
22/12:30pm 11.3 7.1 -1.1 42 5.3 SW 11 17 6 9 1022.2 1022.3 0.0
22/12:00pm 11.0 6.9 0.1 47 4.7 S 11 28 6 15 1022.6 1022.8 0.0
22/11:30am 10.6 6.2 0.3 49 4.5 S 13 19 7 10 1023.0 1023.2 0.0
22/11:00am 9.7 5.2 -0.5 49 4.3 S 13 19 7 10 1023.3 1023.4 0.0
22/10:30am 9.0 5.0 2.8 65 2.8 SE 13 19 7 10 1023.6 1023.8 0.0
22/10:00am 7.6 3.8 1.7 66 2.6 SSE 11 15 6 8 1023.8 1024.0 0.0
22/09:30am 6.1 1.6 2.2 76 1.7 SSE 15 19 8 10 1023.9 1024.1 0.0
22/09:00am 4.3 0.9 2.0 85 1.0 SE 9 13 5 7 1023.8 1024.0 0.2
22/08:30am 1.4 -0.5 0.7 95 0.3 CALM 0 0 0 0 1023.7 1023.9 0.2
22/08:00am -0.5 -3.4 -0.8 98 0.1 SE 4 9 2 5 1023.6 1023.8 0.2
22/07:30am -3.4 -7.2 -3.8 97 0.0 SE 7 11 4 6 1023.5 1023.7 0.0
22/07:00am -4.8 -9.2 -5.8 93 0.1 SSE 9 9 5 5 1023.3 1023.4 0.0
22/06:30am -4.4 -8.3 -5.1 95 0.0 SE 7 9 4 5 1022.9 1023.1 0.0
22/06:00am -4.5 -8.5 -5.3 94 0.1 SE 7 9 4 5 1022.6 1022.8 0.0
22/05:30am -3.9 -7.8 -4.4 96 0.0 SE 7 9 4 5 1022.4 1022.5 0.0
22/05:00am -4.1 -7.8 -4.8 95 0.1 SSE 6 7 3 4 1022.4 1022.5 0.0
22/04:30am -4.1 -8.4 -4.8 95 0.1 SSE 9 13 5 7 1021.8 1022.0 0.0
22/04:00am -3.9 -8.2 -4.4 96 0.0 SSE 9 11 5 6 1021.9 1022.1 0.0
22/03:30am -4.1 -8.0 -4.9 94 0.1 E 7 9 4 5 1021.9 1022.1 0.0
22/03:00am -3.5 -7.3 -4.0 96 0.0 SSE 7 9 4 5 1021.8 1022.0 0.0
22/02:30am -2.4 -4.8 -2.8 97 0.0 CALM 0 7 0 4 1021.6 1021.7 0.0
22/02:00am -2.4 -6.1 -2.8 97 0.0 NE 7 9 4 5 1021.5 1021.6 0.0
22/01:30am -1.5 -4.9 -1.9 97 0.1 SE 6 9 3 5 1021.2 1021.3 0.0
22/01:00am -1.2 -4.6 -1.8 96 0.2 SE 6 7 3 4 1021.3 1021.4 0.0
22/12:30am 0.4 -3.5 -1.5 87 0.7 SSW 9 9 5 5 1021.4 1021.5 0.0
22/12:00am 0.9 -3.5 0.2 95 0.3 SW 13 15 7 8 1021.7 1021.8 0.0
 
Date/Time
EST
Temp
°C
App
Temp
°C
Dew
Point
°C
Rel
Hum
%
Delta-T
°C
Wind Press
QNH
hPa
Press
MSL
hPa
Rain since
9am
mm
Dir  Spd
km/h
Gust
km/h
Spd
kts
Gust
kts
21/11:30pm 0.6 -2.5 0.0 96 0.2 W 6 7 3 4 1022.2 1022.3 0.0
21/11:00pm 0.9 -2.5 -0.4 91 0.5 WSW 7 7 4 4 1022.0 1022.2 0.0
21/10:30pm 2.8 -0.3 1.5 91 0.5 SW 7 9 4 5 1022.0 1022.2 0.0
21/10:00pm 2.6 0.7 0.7 87 0.8 CALM 0 0 0 0 1022.2 1022.3 0.0
21/09:30pm 3.3 0.3 1.7 89 0.7 W 7 13 4 7 1022.0 1022.2 0.0
21/09:00pm 4.0 0.6 1.7 85 1.0 WSW 9 15 5 8 1021.9 1022.1 0.0
21/08:30pm 3.3 -1.3 1.5 88 0.7 WSW 15 17 8 9 1021.8 1022.0 0.0
21/08:00pm 3.5 -0.8 1.2 85 0.9 W 13 17 7 9 1021.8 1022.0 0.0
21/07:30pm 4.9 1.5 1.9 81 1.3 WSW 9 11 5 6 1021.7 1021.8 0.0
21/07:00pm 4.4 1.4 2.1 85 1.0 W 7 11 4 6 1021.5 1021.6 0.0
21/06:30pm 4.7 1.0 2.2 84 1.1 WNW 11 15 6 8 1021.3 1021.4 0.0
21/06:00pm 5.8 1.5 3.1 83 1.2 WNW 15 17 8 9 1020.9 1021.1 0.0
21/05:30pm 6.7 2.1 3.7 81 1.4 W 17 19 9 10 1020.5 1020.6 0.0
21/05:00pm 8.1 3.5 3.6 73 2.1 WNW 17 22 9 12 1020.2 1020.3 0.0
21/04:30pm 10.1 5.1 4.7 69 2.6 WNW 20 26 11 14 1020.0 1020.1 0.0
21/04:00pm 11.5 5.6 3.8 59 3.6 WNW 24 32 13 17 1019.6 1019.7 0.0
21/03:30pm 12.1 7.0 4.3 59 3.7 W 20 33 11 18 1019.4 - 0.0
21/03:00pm 11.2 6.0 5.3 67 2.9 W 22 28 12 15 1019.3 1019.4 0.0
21/02:30pm 12.5 6.7 6.1 65 3.2 WNW 26 33 14 18 1019.2 - 0.0
21/02:00pm 10.9 4.8 6.5 74 2.2 WNW 28 35 15 19 1019.4 1019.5 0.0
21/01:30pm 10.9 5.0 7.4 79 1.8 W 28 35 15 19 1019.3 1019.4 0.0
21/01:00pm 11.6 6.1 7.7 77 2.0 WNW 26 37 14 20 1019.2 1019.2 0.0
21/12:30pm 13.0 6.9 8.1 72 2.6 NW 30 35 16 19 1019.2 1019.2 0.0
21/12:01pm 13.0 8.2 8.7 75 2.3 NW 24 32 13 17 1019.5 1019.6 0.0
21/12:00pm 13.0 8.1 8.3 73 2.5 NW 24 32 13 17 1019.6 1019.7 0.0
21/11:48am 12.7 8.8 8.8 77 2.1 NW 19 26 10 14 1019.8 1019.9 0.0
21/11:30am 12.0 8.1 8.8 81 1.7 WNW 19 24 10 13 1020.2 - 0.0
21/11:18am 11.2 7.0 8.2 82 1.6 WNW 20 26 11 14 1020.4 - 0.0
21/11:00am 11.6 7.3 9.2 85 1.3 WNW 22 26 12 14 1020.4 1020.5 0.0
21/10:30am 11.1 7.8 9.5 90 0.9 NW 17 22 9 12 1020.7 1020.8 0.0
21/10:00am 9.8 7.4 8.6 92 0.6 W 11 15 6 8 1020.7 1020.8 0.0
21/09:30am 9.0 6.9 8.2 95 0.4 W 9 13 5 7 1020.7 1020.8 0.0
21/09:00am 8.6 6.5 8.2 97 0.2 WNW 9 11 5 6 1020.7 1020.8 2.6
21/08:30am 7.9 6.2 7.5 97 0.2 NW 6 7 3 4 1020.7 1020.8 2.6
21/08:00am 7.7 5.8 7.4 98 0.1 WNW 7 9 4 5 1020.7 1020.8 2.6
21/07:30am 7.4 5.4 7.1 98 0.1 WNW 7 11 4 6 1020.5 1020.6 2.6
21/07:09am 7.3 4.5 7.0 98 0.1 W 11 13 6 7 1020.3 1020.4 2.6
21/07:00am 7.3 4.1 6.9 97 0.2 WNW 13 15 7 8 1020.3 1020.4 2.4
21/06:30am 7.4 3.9 7.0 97 0.2 WNW 15 20 8 11 1019.8 1019.9 1.8
21/06:00am 7.4 3.5 7.0 97 0.2 NW 17 22 9 12 1019.6 1019.7 1.6
21/05:54am 7.4 3.1 7.0 97 0.2 NW 19 28 10 15 1019.5 1019.6 1.2
21/05:30am 7.5 3.9 6.9 96 0.3 NNW 15 19 8 10 1019.3 1019.4 0.0
21/05:00am 8.2 4.1 6.2 87 1.0 NW 17 22 9 12 1019.3 1019.4 0.0
21/04:30am 8.2 4.0 5.7 84 1.2 NW 17 24 9 13 1018.7 1018.8 0.0
21/04:00am 8.2 3.5 5.1 81 1.5 NW 19 22 10 12 1018.7 1018.8 0.0
21/03:30am 8.4 3.7 5.0 79 1.6 WNW 19 24 10 13 1018.8 1018.9 0.0
21/03:00am 8.6 3.6 4.8 77 1.8 NW 20 28 11 15 1018.7 1018.8 0.0
21/02:30am 8.7 3.3 4.5 75 2.0 NW 22 26 12 14 1018.9 1019.0 0.0
21/02:00am 8.7 3.8 4.3 74 2.1 NW 19 24 10 13 1018.6 1018.7 0.0
21/01:30am 8.7 4.2 4.3 74 2.1 NW 17 22 9 12 1018.7 1018.8 0.0
21/01:00am 7.1 3.6 3.7 79 1.5 NNW 11 13 6 7 1018.8 1018.9 0.0
21/12:30am 8.4 4.9 3.7 72 2.2 NW 11 17 6 9 1018.6 - 0.0
21/12:00am 9.1 4.2 3.9 70 2.4 NW 19 24 10 13 1019.1 1019.1 0.0
 
Date/Time
EST
Temp
°C
App
Temp
°C
Dew
Point
°C
Rel
Hum
%
Delta-T
°C
Wind Press
QNH
hPa
Press
MSL
hPa
Rain since
9am
mm
Dir  Spd
km/h
Gust
km/h
Spd
kts
Gust
kts
20/11:30pm 9.0 3.8 3.4 68 2.6 NW 20 26 11 14 1019.3 1019.4 0.0
20/11:00pm 9.3 4.7 3.5 67 2.7 NW 17 20 9 11 1019.3 1019.4 0.0
20/10:40pm 9.2 4.2 3.4 67 2.7 NW 19 24 10 13 1019.3 1019.4 0.0
20/10:30pm 9.1 4.5 3.5 68 2.6 NW 17 20 9 11 1019.3 1019.4 0.0
20/10:08pm 8.7 5.7 4.1 73 2.1 NNW 9 15 5 8 1019.6 1019.7 0.0
20/10:00pm 8.2 7.0 4.6 78 1.7 CALM 0 9 0 5 1019.3 1019.4 0.0
20/09:30pm 8.2 7.1 5.1 81 1.5 CALM 0 4 0 2 1019.7 1019.8 0.0
20/09:00pm 8.1 6.6 5.0 81 1.5 W 2 7 1 4 1019.6 1019.7 0.0
20/08:30pm 7.8 5.6 5.4 85 1.1 NW 6 7 3 4 1019.8 1019.9 0.0
20/08:00pm 7.6 5.2 5.2 85 1.1 NW 7 9 4 5 1019.7 1019.8 0.0
20/07:30pm 7.8 5.6 5.3 84 1.2 WNW 6 9 3 5 1019.6 1019.7 0.0
20/07:00pm 8.2 7.0 4.8 79 1.6 CALM 0 0 0 0 1019.3 1019.4 0.0
20/06:30pm 7.9 6.7 4.7 80 1.5 CALM 0 0 0 0 1019.2 1019.2 0.0
20/06:00pm 8.1 6.9 4.5 78 1.7 CALM 0 0 0 0 1019.1 1019.1 0.0
20/05:44pm 8.2 6.5 4.2 76 1.9 WNW 2 6 1 3 1018.7 1018.8 0.0
20/05:30pm 8.3 5.9 4.1 75 2.0 W 6 9 3 5 1018.7 1018.8 0.0
20/05:00pm 8.3 5.2 3.4 71 2.2 NW 9 9 5 5 1019.1 1019.1 0.0
20/04:51pm 8.4 5.2 3.3 70 2.3 NW 9 11 5 6 1019.1 1019.1 0.0
20/04:30pm 8.6 5.7 2.8 67 2.6 WNW 7 11 4 6 1018.8 1018.9 0.0
20/04:00pm 8.8 5.6 2.8 66 2.7 NW 9 13 5 7 1018.5 1018.6 0.0
20/03:30pm 8.8 4.8 2.8 66 2.7 NW 13 17 7 9 1018.6 1018.7 0.0
20/03:00pm 9.0 5.0 3.0 66 2.7 WNW 13 17 7 9 1018.7 1018.8 0.0
20/02:30pm 8.9 4.8 4.3 73 2.2 NW 15 20 8 11 1018.6 1018.7 0.0
20/02:00pm 8.5 4.2 3.1 69 2.4 NW 15 20 8 11 1019.1 1019.1 0.0
20/01:30pm 8.5 2.4 2.5 66 2.7 NW 24 28 13 15 1018.5 1018.6 0.0
20/01:00pm 8.6 4.7 3.4 70 2.4 NW 13 17 7 9 1018.7 1018.8 0.0
20/12:30pm 8.7 4.4 3.3 69 2.5 WNW 15 19 8 10 1019.3 1019.4 0.0
20/12:00pm 8.6 3.4 2.6 66 2.7 W 19 22 10 12 1019.7 1019.8 0.0
20/11:30am 9.6 4.2 1.0 55 3.8 WNW 19 22 10 12 1019.6 1019.7 0.0
20/11:00am 10.6 5.3 -0.5 46 4.7 NW 17 20 9 11 1019.5 1019.6 0.0
20/10:30am 10.1 5.3 -0.1 49 4.4 NNW 15 19 8 10 1020.2 1020.3 0.0
20/10:00am 8.7 6.9 1.1 59 3.3 CALM 0 7 0 4 1020.2 1020.3 0.0
20/09:30am 7.2 5.6 2.3 71 2.2 CALM 0 0 0 0 1020.4 1020.5 0.0
20/09:00am 6.2 3.4 3.0 80 1.4 SSE 7 9 4 5 1020.6 1020.7 0.0
20/08:30am 4.3 1.3 1.7 83 1.1 ESE 7 7 4 4 1020.4 1020.5 0.0
20/08:00am 3.4 0.2 1.0 84 1.0 SE 7 9 4 5 1019.8 1019.9 0.0
20/07:30am 1.9 -1.7 0.6 91 0.5 SE 9 9 5 5 1019.4 1019.5 0.0
20/07:00am 0.6 -3.2 -0.8 90 0.5 ESE 9 11 5 6 1018.7 1018.8 0.0
20/06:30am 0.2 -3.3 -1.1 91 0.5 SE 7 9 4 5 1018.7 1018.8 0.0
20/06:00am 0.1 -4.1 -1.0 92 0.4 ESE 11 13 6 7 1018.4 1018.4 0.0
20/05:30am -0.6 -4.6 -1.9 91 0.4 SE 9 13 5 7 1018.7 - 0.0
20/05:00am -0.6 -4.9 -1.7 92 0.4 ESE 11 13 6 7 1018.6 1018.7 0.0
20/04:30am -1.1 -5.1 -2.1 93 0.3 ESE 9 13 5 7 1018.3 1018.3 0.0
20/04:00am -1.3 -4.9 -2.3 93 0.3 ESE 7 9 4 5 1018.4 1018.4 0.0
20/03:30am -0.7 -4.1 -2.3 89 0.5 ESE 6 7 3 4 1018.5 - 0.0
20/03:00am -0.1 -3.6 -1.1 93 0.4 SE 7 9 4 5 1018.4 1018.4 0.0
20/02:30am 0.0 -3.5 -1.0 93 0.4 ESE 7 9 4 5 1018.8 1018.9 0.0
20/02:00am -1.2 -5.2 -2.0 94 0.2 E 9 13 5 7 1018.8 1018.9 0.0
20/01:30am -2.5 -6.7 -3.6 92 0.3 SSE 9 11 5 6 1018.7 1018.8 0.0
20/01:00am -2.3 -6.1 -3.6 91 0.3 SE 7 7 4 4 1018.8 1018.9 0.0
20/12:30am -2.4 -6.1 -3.2 94 0.2 SSE 7 9 4 5 1019.1 1019.1 0.0
20/12:00am -1.9 -6.1 -3.5 89 0.5 SSE 9 11 5 6 1018.8 1018.9 0.0
 
Date/Time
EST
Temp
°C
App
Temp
°C
Dew
Point
°C
Rel
Hum
%
Delta-T
°C
Wind Press
QNH
hPa
Press
MSL
hPa
Rain since
9am
mm
Dir  Spd
km/h
Gust
km/h
Spd
kts
Gust
kts
19/11:30pm -2.8 -7.4 -4.2 90 0.3 ESE 11 13 6 7 1018.8 1018.9 0.0
19/11:00pm -2.1 -5.9 -3.4 91 0.4 SE 7 9 4 5 1018.8 1018.9 0.0
19/10:30pm -1.9 -5.5 -3.8 87 0.6 SE 6 7 3 4 1019.2 1019.2 0.0
19/10:00pm -0.9 -4.4 -2.9 86 0.7 ESE 6 7 3 4 1019.2 1019.2 0.0
19/09:30pm -0.3 -3.0 -2.8 83 0.9 SSE 2 7 1 4 1019.1 1019.1 0.0
19/09:00pm 0.8 -2.6 -2.2 80 1.2 S 6 7 3 4 1019.2 1019.2 0.0
19/08:30pm 0.5 -3.0 -2.9 78 1.3 SE 6 7 3 4 1018.6 1018.7 0.0
19/08:00pm -0.1 -2.9 -3.1 80 1.1 W 2 6 1 3 1018.6 1018.7 0.0
19/07:30pm 3.1 -0.5 -3.7 61 2.5 WNW 6 7 3 4 1018.6 1018.7 0.0
19/07:00pm 0.7 -2.9 -3.8 72 1.6 WNW 6 7 3 4 1018.3 1018.3 0.0
19/06:30pm 2.1 -1.6 -3.2 68 1.9 WNW 7 9 4 5 1018.3 1018.3 0.0
19/06:00pm 4.1 0.5 -3.9 56 2.9 WNW 6 6 3 3 1017.8 1017.9 0.0
19/05:30pm 4.3 0.7 -3.9 55 3.0 W 6 7 3 4 1017.5 1017.5 0.0
19/05:00pm 6.6 2.0 -3.9 47 4.0 W 11 13 6 7 1017.5 1017.5 0.0
19/04:30pm 9.4 3.7 -3.8 39 5.2 W 17 20 9 11 1017.2 1017.2 0.0
19/04:00pm 10.6 4.4 -3.1 38 5.5 W 20 28 11 15 1017.0 1017.0 0.0

Other formats

Comma delimited format used in spreadsheet applications
http://www.bom.gov.au/fwo/IDN60801/IDN60801.94588.axf

JavaScript Object Notation format (JSON) in row-major order
http://www.bom.gov.au/fwo/IDN60801/IDN60801.94588.json

Data quality

Most of these data are generated automatically and are frequently updated. Quality checks on data are not normally performed. It is possible for incorrect values to appear. Refer to information at About Latest Weather Observations and please check the disclaimer before using these data.